sensor_id;sensor_type;location;lat;lon;timestamp;P1;durP1;ratioP1;P2;durP2;ratioP2
77978;SDS011;67169;50.268;8.694;2023-04-15T00:01:21;1.88;;;1.70;;
77978;SDS011;67169;50.268;8.694;2023-04-15T00:03:49;2.25;;;1.65;;
77978;SDS011;67169;50.268;8.694;2023-04-15T00:06:17;4.32;;;1.80;;
77978;SDS011;67169;50.268;8.694;2023-04-15T00:08:44;2.33;;;1.52;;
77978;SDS011;67169;50.268;8.694;2023-04-15T00:11:12;2.20;;;1.35;;
77978;SDS011;67169;50.268;8.694;2023-04-15T00:18:35;1.58;;;1.45;;
77978;SDS011;67169;50.268;8.694;2023-04-15T00:21:02;2.60;;;1.65;;
77978;SDS011;67169;50.268;8.694;2023-04-15T00:23:29;4.55;;;1.42;;
77978;SDS011;67169;50.268;8.694;2023-04-15T00:25:56;2.15;;;1.30;;
77978;SDS011;67169;50.268;8.694;2023-04-15T00:28:24;3.03;;;1.38;;
77978;SDS011;67169;50.268;8.694;2023-04-15T00:30:52;1.70;;;1.20;;
77978;SDS011;67169;50.268;8.694;2023-04-15T00:33:18;11.73;;;1.80;;
77978;SDS011;67169;50.268;8.694;2023-04-15T00:35:45;2.38;;;1.52;;
77978;SDS011;67169;50.268;8.694;2023-04-15T00:38:12;2.72;;;1.40;;
77978;SDS011;67169;50.268;8.694;2023-04-15T00:40:38;2.08;;;1.50;;
77978;SDS011;67169;50.268;8.694;2023-04-15T00:43:05;2.08;;;1.33;;
77978;SDS011;67169;50.268;8.694;2023-04-15T00:45:33;2.65;;;1.80;;
77978;SDS011;67169;50.268;8.694;2023-04-15T00:47:59;2.85;;;1.40;;
77978;SDS011;67169;50.268;8.694;2023-04-15T00:50:26;3.08;;;1.27;;
77978;SDS011;67169;50.268;8.694;2023-04-15T00:52:53;2.22;;;1.67;;
77978;SDS011;67169;50.268;8.694;2023-04-15T00:55:20;2.10;;;1.70;;
77978;SDS011;67169;50.268;8.694;2023-04-15T00:57:47;2.05;;;1.67;;
77978;SDS011;67169;50.268;8.694;2023-04-15T01:00:14;2.42;;;1.33;;
77978;SDS011;67169;50.268;8.694;2023-04-15T01:02:42;5.07;;;1.70;;
77978;SDS011;67169;50.268;8.694;2023-04-15T01:05:09;2.78;;;1.90;;
77978;SDS011;67169;50.268;8.694;2023-04-15T01:07:35;3.55;;;1.50;;
77978;SDS011;67169;50.268;8.694;2023-04-15T01:10:02;2.22;;;1.48;;
77978;SDS011;67169;50.268;8.694;2023-04-15T01:12:29;2.20;;;1.63;;
77978;SDS011;67169;50.268;8.694;2023-04-15T01:14:58;2.40;;;1.70;;
77978;SDS011;67169;50.268;8.694;2023-04-15T01:17:25;2.35;;;1.40;;
77978;SDS011;67169;50.268;8.694;2023-04-15T01:19:53;1.88;;;1.30;;
77978;SDS011;67169;50.268;8.694;2023-04-15T01:22:21;3.25;;;1.90;;
77978;SDS011;67169;50.268;8.694;2023-04-15T01:24:50;2.35;;;1.20;;
77978;SDS011;67169;50.268;8.694;2023-04-15T01:27:23;3.15;;;1.42;;
77978;SDS011;67169;50.268;8.694;2023-04-15T01:29:50;5.45;;;1.70;;
77978;SDS011;67169;50.268;8.694;2023-04-15T01:32:16;2.65;;;1.85;;
77978;SDS011;67169;50.268;8.694;2023-04-15T01:34:44;2.13;;;1.38;;
77978;SDS011;67169;50.268;8.694;2023-04-15T01:37:10;2.22;;;1.27;;
77978;SDS011;67169;50.268;8.694;2023-04-15T01:39:37;2.97;;;1.40;;
77978;SDS011;67169;50.268;8.694;2023-04-15T01:42:04;1.77;;;1.23;;
77978;SDS011;67169;50.268;8.694;2023-04-15T01:44:32;5.40;;;1.38;;
77978;SDS011;67169;50.268;8.694;2023-04-15T01:46:59;2.25;;;1.30;;
77978;SDS011;67169;50.268;8.694;2023-04-15T01:49:25;1.70;;;1.40;;
77978;SDS011;67169;50.268;8.694;2023-04-15T01:51:52;1.80;;;1.23;;
77978;SDS011;67169;50.268;8.694;2023-04-15T01:54:19;3.20;;;1.55;;
77978;SDS011;67169;50.268;8.694;2023-04-15T01:56:45;2.40;;;1.45;;
77978;SDS011;67169;50.268;8.694;2023-04-15T01:59:12;2.17;;;1.83;;
77978;SDS011;67169;50.268;8.694;2023-04-15T02:01:40;4.60;;;1.50;;
77978;SDS011;67169;50.268;8.694;2023-04-15T02:04:07;2.72;;;1.52;;
77978;SDS011;67169;50.268;8.694;2023-04-15T02:06:40;3.00;;;1.77;;
77978;SDS011;67169;50.268;8.694;2023-04-15T02:09:07;2.80;;;1.45;;
77978;SDS011;67169;50.268;8.694;2023-04-15T02:11:33;3.63;;;1.65;;
77978;SDS011;67169;50.268;8.694;2023-04-15T02:14:01;2.17;;;1.80;;
77978;SDS011;67169;50.268;8.694;2023-04-15T02:16:28;2.92;;;1.73;;
77978;SDS011;67169;50.268;8.694;2023-04-15T02:18:56;4.75;;;1.30;;
77978;SDS011;67169;50.268;8.694;2023-04-15T02:21:22;2.20;;;1.48;;
77978;SDS011;67169;50.268;8.694;2023-04-15T02:23:51;2.65;;;1.30;;
77978;SDS011;67169;50.268;8.694;2023-04-15T02:26:18;1.88;;;1.33;;
77978;SDS011;67169;50.268;8.694;2023-04-15T02:28:45;3.35;;;1.25;;
77978;SDS011;67169;50.268;8.694;2023-04-15T02:31:12;2.08;;;1.52;;
77978;SDS011;67169;50.268;8.694;2023-04-15T02:33:38;4.70;;;1.40;;
77978;SDS011;67169;50.268;8.694;2023-04-15T02:36:07;2.47;;;1.35;;
77978;SDS011;67169;50.268;8.694;2023-04-15T02:38:35;2.28;;;1.42;;
77978;SDS011;67169;50.268;8.694;2023-04-15T02:41:02;3.40;;;1.63;;
77978;SDS011;67169;50.268;8.694;2023-04-15T02:43:28;2.13;;;1.23;;
77978;SDS011;67169;50.268;8.694;2023-04-15T02:45:55;2.65;;;1.80;;
77978;SDS011;67169;50.268;8.694;2023-04-15T02:48:22;2.30;;;1.40;;
77978;SDS011;67169;50.268;8.694;2023-04-15T02:50:48;1.55;;;1.45;;
77978;SDS011;67169;50.268;8.694;2023-04-15T02:53:16;2.88;;;1.63;;
77978;SDS011;67169;50.268;8.694;2023-04-15T02:55:43;5.05;;;1.75;;
77978;SDS011;67169;50.268;8.694;2023-04-15T02:58:10;3.92;;;1.83;;
77978;SDS011;67169;50.268;8.694;2023-04-15T03:00:37;2.85;;;1.60;;
77978;SDS011;67169;50.268;8.694;2023-04-15T03:03:04;3.33;;;1.88;;
77978;SDS011;67169;50.268;8.694;2023-04-15T03:05:31;3.08;;;2.35;;
77978;SDS011;67169;50.268;8.694;2023-04-15T03:07:58;2.35;;;1.77;;
77978;SDS011;67169;50.268;8.694;2023-04-15T03:10:26;3.15;;;1.70;;
77978;SDS011;67169;50.268;8.694;2023-04-15T03:12:53;2.20;;;1.70;;
77978;SDS011;67169;50.268;8.694;2023-04-15T03:15:19;5.53;;;1.85;;
77978;SDS011;67169;50.268;8.694;2023-04-15T03:17:46;3.08;;;2.08;;
77978;SDS011;67169;50.268;8.694;2023-04-15T03:20:13;3.38;;;2.10;;
77978;SDS011;67169;50.268;8.694;2023-04-15T03:22:40;4.80;;;1.80;;
77978;SDS011;67169;50.268;8.694;2023-04-15T03:25:06;3.08;;;1.65;;
77978;SDS011;67169;50.268;8.694;2023-04-15T03:27:35;2.50;;;1.38;;
77978;SDS011;67169;50.268;8.694;2023-04-15T03:30:03;4.43;;;1.88;;
77978;SDS011;67169;50.268;8.694;2023-04-15T03:32:30;3.30;;;1.77;;
77978;SDS011;67169;50.268;8.694;2023-04-15T03:34:57;3.40;;;1.65;;
77978;SDS011;67169;50.268;8.694;2023-04-15T03:37:23;3.05;;;1.90;;
77978;SDS011;67169;50.268;8.694;2023-04-15T03:39:50;2.97;;;2.00;;
77978;SDS011;67169;50.268;8.694;2023-04-15T03:42:16;2.20;;;1.80;;
77978;SDS011;67169;50.268;8.694;2023-04-15T03:44:44;8.13;;;2.42;;
77978;SDS011;67169;50.268;8.694;2023-04-15T03:47:11;4.88;;;2.10;;
77978;SDS011;67169;50.268;8.694;2023-04-15T03:49:37;3.38;;;2.13;;
77978;SDS011;67169;50.268;8.694;2023-04-15T03:52:04;4.47;;;2.45;;
77978;SDS011;67169;50.268;8.694;2023-04-15T03:54:31;8.02;;;2.72;;
77978;SDS011;67169;50.268;8.694;2023-04-15T03:56:57;3.33;;;2.17;;
77978;SDS011;67169;50.268;8.694;2023-04-15T03:59:24;5.32;;;2.30;;
77978;SDS011;67169;50.268;8.694;2023-04-15T04:01:52;4.60;;;2.40;;
77978;SDS011;67169;50.268;8.694;2023-04-15T04:04:18;2.97;;;2.22;;
77978;SDS011;67169;50.268;8.694;2023-04-15T04:06:45;3.20;;;2.33;;
77978;SDS011;67169;50.268;8.694;2023-04-15T04:09:12;2.78;;;2.15;;
77978;SDS011;67169;50.268;8.694;2023-04-15T04:11:38;4.82;;;2.20;;
77978;SDS011;67169;50.268;8.694;2023-04-15T04:14:05;5.72;;;2.40;;
77978;SDS011;67169;50.268;8.694;2023-04-15T04:16:32;2.35;;;1.95;;
77978;SDS011;67169;50.268;8.694;2023-04-15T04:18:59;3.20;;;2.40;;
77978;SDS011;67169;50.268;8.694;2023-04-15T04:21:26;3.40;;;1.98;;
77978;SDS011;67169;50.268;8.694;2023-04-15T04:23:53;5.95;;;2.47;;
77978;SDS011;67169;50.268;8.694;2023-04-15T04:26:20;4.43;;;1.73;;
77978;SDS011;67169;50.268;8.694;2023-04-15T04:28:47;4.82;;;2.30;;
77978;SDS011;67169;50.268;8.694;2023-04-15T04:31:13;3.30;;;1.92;;
77978;SDS011;67169;50.268;8.694;2023-04-15T04:33:41;2.47;;;1.73;;
77978;SDS011;67169;50.268;8.694;2023-04-15T04:36:09;4.07;;;1.85;;
77978;SDS011;67169;50.268;8.694;2023-04-15T04:38:35;4.45;;;1.60;;
77978;SDS011;67169;50.268;8.694;2023-04-15T04:41:02;3.90;;;1.95;;
77978;SDS011;67169;50.268;8.694;2023-04-15T04:43:28;4.53;;;1.65;;
77978;SDS011;67169;50.268;8.694;2023-04-15T04:45:55;3.83;;;2.22;;
77978;SDS011;67169;50.268;8.694;2023-04-15T04:48:22;4.75;;;2.20;;
77978;SDS011;67169;50.268;8.694;2023-04-15T04:50:49;3.33;;;2.28;;
77978;SDS011;67169;50.268;8.694;2023-04-15T04:53:17;2.65;;;1.92;;
77978;SDS011;67169;50.268;8.694;2023-04-15T04:55:44;2.05;;;1.67;;
77978;SDS011;67169;50.268;8.694;2023-04-15T04:58:10;4.45;;;2.10;;
77978;SDS011;67169;50.268;8.694;2023-04-15T05:00:37;3.40;;;2.25;;
77978;SDS011;67169;50.268;8.694;2023-04-15T05:03:05;5.05;;;2.58;;
77978;SDS011;67169;50.268;8.694;2023-04-15T05:05:31;5.97;;;2.30;;
77978;SDS011;67169;50.268;8.694;2023-04-15T05:07:59;3.47;;;2.20;;
77978;SDS011;67169;50.268;8.694;2023-04-15T05:10:27;4.55;;;2.58;;
77978;SDS011;67169;50.268;8.694;2023-04-15T05:12:54;4.10;;;2.72;;
77978;SDS011;67169;50.268;8.694;2023-04-15T05:15:20;3.40;;;2.42;;
77978;SDS011;67169;50.268;8.694;2023-04-15T05:17:47;6.32;;;2.95;;
77978;SDS011;67169;50.268;8.694;2023-04-15T05:20:13;4.60;;;2.55;;
77978;SDS011;67169;50.268;8.694;2023-04-15T05:22:40;4.68;;;2.80;;
77978;SDS011;67169;50.268;8.694;2023-04-15T05:25:07;5.70;;;2.75;;
77978;SDS011;67169;50.268;8.694;2023-04-15T05:27:35;4.97;;;2.63;;
77978;SDS011;67169;50.268;8.694;2023-04-15T05:30:02;4.03;;;2.80;;
77978;SDS011;67169;50.268;8.694;2023-04-15T05:32:28;3.33;;;1.98;;
77978;SDS011;67169;50.268;8.694;2023-04-15T05:34:55;3.08;;;2.42;;
77978;SDS011;67169;50.268;8.694;2023-04-15T05:37:21;4.72;;;2.65;;
77978;SDS011;67169;50.268;8.694;2023-04-15T05:39:48;3.95;;;2.65;;
77978;SDS011;67169;50.268;8.694;2023-04-15T05:42:15;5.93;;;2.60;;
77978;SDS011;67169;50.268;8.694;2023-04-15T05:44:43;4.85;;;2.67;;
77978;SDS011;67169;50.268;8.694;2023-04-15T05:47:09;7.55;;;2.90;;
77978;SDS011;67169;50.268;8.694;2023-04-15T05:49:36;4.03;;;2.75;;
77978;SDS011;67169;50.268;8.694;2023-04-15T05:52:02;8.43;;;2.88;;
77978;SDS011;67169;50.268;8.694;2023-04-15T05:54:29;7.03;;;3.05;;
77978;SDS011;67169;50.268;8.694;2023-04-15T05:56:56;4.28;;;2.55;;
77978;SDS011;67169;50.268;8.694;2023-04-15T05:59:23;4.35;;;2.97;;
77978;SDS011;67169;50.268;8.694;2023-04-15T06:01:51;4.70;;;3.13;;
77978;SDS011;67169;50.268;8.694;2023-04-15T06:04:17;4.40;;;2.67;;
77978;SDS011;67169;50.268;8.694;2023-04-15T06:06:44;5.53;;;3.00;;
77978;SDS011;67169;50.268;8.694;2023-04-15T06:09:11;6.68;;;2.78;;
77978;SDS011;67169;50.268;8.694;2023-04-15T06:11:37;3.67;;;2.70;;
77978;SDS011;67169;50.268;8.694;2023-04-15T06:14:05;4.20;;;3.03;;
77978;SDS011;67169;50.268;8.694;2023-04-15T06:16:31;4.55;;;3.00;;
77978;SDS011;67169;50.268;8.694;2023-04-15T06:18:59;5.28;;;2.95;;
77978;SDS011;67169;50.268;8.694;2023-04-15T06:21:26;4.47;;;3.22;;
77978;SDS011;67169;50.268;8.694;2023-04-15T06:23:53;6.40;;;3.45;;
77978;SDS011;67169;50.268;8.694;2023-04-15T06:26:20;4.20;;;3.20;;
77978;SDS011;67169;50.268;8.694;2023-04-15T06:28:47;6.85;;;4.50;;
77978;SDS011;67169;50.268;8.694;2023-04-15T06:31:13;8.43;;;4.97;;
77978;SDS011;67169;50.268;8.694;2023-04-15T06:33:40;9.02;;;5.20;;
77978;SDS011;67169;50.268;8.694;2023-04-15T06:36:08;9.68;;;4.93;;
77978;SDS011;67169;50.268;8.694;2023-04-15T06:41:01;7.93;;;4.75;;
77978;SDS011;67169;50.268;8.694;2023-04-15T06:43:28;10.55;;;5.22;;
77978;SDS011;67169;50.268;8.694;2023-04-15T06:45:55;7.10;;;4.60;;
77978;SDS011;67169;50.268;8.694;2023-04-15T06:48:21;7.78;;;5.28;;
77978;SDS011;67169;50.268;8.694;2023-04-15T06:50:48;7.10;;;4.35;;
77978;SDS011;67169;50.268;8.694;2023-04-15T06:53:16;8.68;;;4.95;;
77978;SDS011;67169;50.268;8.694;2023-04-15T06:55:43;9.63;;;5.90;;
77978;SDS011;67169;50.268;8.694;2023-04-15T06:58:10;10.00;;;4.63;;
77978;SDS011;67169;50.268;8.694;2023-04-15T07:00:36;7.32;;;4.07;;
77978;SDS011;67169;50.268;8.694;2023-04-15T07:03:04;9.32;;;4.78;;
77978;SDS011;67169;50.268;8.694;2023-04-15T07:05:34;8.73;;;5.22;;
77978;SDS011;67169;50.268;8.694;2023-04-15T07:08:00;7.63;;;5.32;;
77978;SDS011;67169;50.268;8.694;2023-04-15T07:10:29;12.38;;;5.03;;
77978;SDS011;67169;50.268;8.694;2023-04-15T07:15:22;8.00;;;4.57;;
77978;SDS011;67169;50.268;8.694;2023-04-15T07:17:49;7.57;;;4.65;;
77978;SDS011;67169;50.268;8.694;2023-04-15T07:20:15;5.55;;;4.35;;
77978;SDS011;67169;50.268;8.694;2023-04-15T07:22:42;7.40;;;4.32;;
77978;SDS011;67169;50.268;8.694;2023-04-15T07:25:09;6.45;;;4.07;;
77978;SDS011;67169;50.268;8.694;2023-04-15T07:27:37;6.72;;;3.70;;
77978;SDS011;67169;50.268;8.694;2023-04-15T07:32:30;7.38;;;3.28;;
77978;SDS011;67169;50.268;8.694;2023-04-15T07:34:57;6.57;;;3.78;;
77978;SDS011;67169;50.268;8.694;2023-04-15T07:37:24;4.60;;;3.25;;
77978;SDS011;67169;50.268;8.694;2023-04-15T07:39:50;4.03;;;2.70;;
77978;SDS011;67169;50.268;8.694;2023-04-15T07:42:17;5.65;;;3.45;;
77978;SDS011;67169;50.268;8.694;2023-04-15T07:44:45;8.30;;;3.45;;
77978;SDS011;67169;50.268;8.694;2023-04-15T07:47:12;3.83;;;2.70;;
77978;SDS011;67169;50.268;8.694;2023-04-15T07:49:38;4.53;;;3.00;;
77978;SDS011;67169;50.268;8.694;2023-04-15T07:52:07;4.43;;;2.83;;
77978;SDS011;67169;50.268;8.694;2023-04-15T07:54:33;4.43;;;2.35;;
77978;SDS011;67169;50.268;8.694;2023-04-15T07:57:00;4.53;;;2.60;;
77978;SDS011;67169;50.268;8.694;2023-04-15T07:59:27;3.60;;;2.33;;
77978;SDS011;67169;50.268;8.694;2023-04-15T08:01:58;3.25;;;2.38;;
77978;SDS011;67169;50.268;8.694;2023-04-15T08:04:25;4.15;;;2.63;;
77978;SDS011;67169;50.268;8.694;2023-04-15T08:06:52;3.58;;;2.35;;
77978;SDS011;67169;50.268;8.694;2023-04-15T08:09:19;3.75;;;2.75;;
77978;SDS011;67169;50.268;8.694;2023-04-15T08:11:47;5.50;;;3.95;;
77978;SDS011;67169;50.268;8.694;2023-04-15T08:14:14;6.18;;;3.13;;
77978;SDS011;67169;50.268;8.694;2023-04-15T08:16:40;5.80;;;4.22;;
77978;SDS011;67169;50.268;8.694;2023-04-15T08:19:08;5.45;;;3.83;;
77978;SDS011;67169;50.268;8.694;2023-04-15T08:21:35;4.97;;;3.63;;
77978;SDS011;67169;50.268;8.694;2023-04-15T08:24:02;8.20;;;3.83;;
77978;SDS011;67169;50.268;8.694;2023-04-15T08:26:29;6.43;;;4.13;;
77978;SDS011;67169;50.268;8.694;2023-04-15T08:28:55;5.97;;;4.10;;
77978;SDS011;67169;50.268;8.694;2023-04-15T08:31:22;5.65;;;3.83;;
77978;SDS011;67169;50.268;8.694;2023-04-15T08:33:48;5.97;;;3.50;;
77978;SDS011;67169;50.268;8.694;2023-04-15T08:36:18;4.88;;;3.67;;
77978;SDS011;67169;50.268;8.694;2023-04-15T08:38:45;6.05;;;3.03;;
77978;SDS011;67169;50.268;8.694;2023-04-15T08:41:17;3.72;;;2.28;;
77978;SDS011;67169;50.268;8.694;2023-04-15T08:43:51;3.38;;;2.60;;
77978;SDS011;67169;50.268;8.694;2023-04-15T08:46:19;6.10;;;2.58;;
77978;SDS011;67169;50.268;8.694;2023-04-15T08:48:47;3.95;;;2.60;;
77978;SDS011;67169;50.268;8.694;2023-04-15T08:51:14;4.63;;;2.63;;
77978;SDS011;67169;50.268;8.694;2023-04-15T08:53:44;3.25;;;2.00;;
77978;SDS011;67169;50.268;8.694;2023-04-15T08:56:12;4.30;;;2.60;;
77978;SDS011;67169;50.268;8.694;2023-04-15T08:58:40;4.13;;;2.20;;
77978;SDS011;67169;50.268;8.694;2023-04-15T09:01:07;3.72;;;2.30;;
77978;SDS011;67169;50.268;8.694;2023-04-15T09:03:34;4.15;;;2.13;;
77978;SDS011;67169;50.268;8.694;2023-04-15T09:08:29;8.10;;;3.10;;
77978;SDS011;67169;50.268;8.694;2023-04-15T09:10:57;2.90;;;2.00;;
77978;SDS011;67169;50.268;8.694;2023-04-15T09:13:24;7.18;;;2.55;;
77978;SDS011;67169;50.268;8.694;2023-04-15T09:15:50;3.97;;;2.20;;
77978;SDS011;67169;50.268;8.694;2023-04-15T09:18:25;2.67;;;2.05;;
77978;SDS011;67169;50.268;8.694;2023-04-15T09:20:53;2.78;;;2.00;;
77978;SDS011;67169;50.268;8.694;2023-04-15T09:23:20;3.35;;;2.10;;
77978;SDS011;67169;50.268;8.694;2023-04-15T09:25:48;2.30;;;1.70;;
77978;SDS011;67169;50.268;8.694;2023-04-15T09:28:22;2.72;;;1.90;;
77978;SDS011;67169;50.268;8.694;2023-04-15T09:30:50;3.60;;;2.30;;
77978;SDS011;67169;50.268;8.694;2023-04-15T09:33:17;1.80;;;1.52;;
77978;SDS011;67169;50.268;8.694;2023-04-15T09:35:49;2.42;;;1.80;;
77978;SDS011;67169;50.268;8.694;2023-04-15T09:38:23;3.58;;;2.10;;
77978;SDS011;67169;50.268;8.694;2023-04-15T09:40:49;2.33;;;1.85;;
77978;SDS011;67169;50.268;8.694;2023-04-15T09:43:17;3.30;;;2.30;;
77978;SDS011;67169;50.268;8.694;2023-04-15T09:45:46;4.90;;;2.13;;
77978;SDS011;67169;50.268;8.694;2023-04-15T09:48:14;3.83;;;2.40;;
77978;SDS011;67169;50.268;8.694;2023-04-15T09:50:42;2.53;;;2.28;;
77978;SDS011;67169;50.268;8.694;2023-04-15T09:53:09;4.00;;;2.47;;
77978;SDS011;67169;50.268;8.694;2023-04-15T09:55:37;3.78;;;2.42;;
77978;SDS011;67169;50.268;8.694;2023-04-15T09:58:07;2.58;;;2.08;;
77978;SDS011;67169;50.268;8.694;2023-04-15T10:00:36;3.65;;;2.20;;
77978;SDS011;67169;50.268;8.694;2023-04-15T10:03:04;4.30;;;1.83;;
77978;SDS011;67169;50.268;8.694;2023-04-15T10:07:58;1.80;;;1.38;;
77978;SDS011;67169;50.268;8.694;2023-04-15T10:10:26;2.90;;;1.70;;
77978;SDS011;67169;50.268;8.694;2023-04-15T10:12:53;2.95;;;2.25;;
77978;SDS011;67169;50.268;8.694;2023-04-15T10:15:21;2.95;;;2.08;;
77978;SDS011;67169;50.268;8.694;2023-04-15T10:17:50;3.33;;;1.70;;
77978;SDS011;67169;50.268;8.694;2023-04-15T10:20:19;2.70;;;2.15;;
77978;SDS011;67169;50.268;8.694;2023-04-15T10:22:48;3.15;;;1.88;;
77978;SDS011;67169;50.268;8.694;2023-04-15T10:25:16;2.85;;;1.98;;
77978;SDS011;67169;50.268;8.694;2023-04-15T10:27:44;2.38;;;1.83;;
77978;SDS011;67169;50.268;8.694;2023-04-15T10:30:12;2.40;;;1.73;;
77978;SDS011;67169;50.268;8.694;2023-04-15T10:32:40;2.33;;;1.75;;
77978;SDS011;67169;50.268;8.694;2023-04-15T10:35:09;2.33;;;1.60;;
77978;SDS011;67169;50.268;8.694;2023-04-15T10:37:37;1.52;;;1.40;;
77978;SDS011;67169;50.268;8.694;2023-04-15T10:40:24;2.78;;;1.55;;
77978;SDS011;67169;50.268;8.694;2023-04-15T10:42:52;2.90;;;2.15;;
77978;SDS011;67169;50.268;8.694;2023-04-15T10:45:19;1.40;;;1.30;;
77978;SDS011;67169;50.268;8.694;2023-04-15T10:47:50;2.40;;;1.83;;
77978;SDS011;67169;50.268;8.694;2023-04-15T10:50:20;3.78;;;1.67;;
77978;SDS011;67169;50.268;8.694;2023-04-15T10:52:49;3.40;;;2.08;;
77978;SDS011;67169;50.268;8.694;2023-04-15T10:55:18;2.42;;;1.75;;
77978;SDS011;67169;50.268;8.694;2023-04-15T10:57:46;2.08;;;1.60;;
77978;SDS011;67169;50.268;8.694;2023-04-15T11:00:18;2.53;;;1.85;;
77978;SDS011;67169;50.268;8.694;2023-04-15T11:02:51;3.92;;;2.33;;
77978;SDS011;67169;50.268;8.694;2023-04-15T11:05:19;2.35;;;1.63;;
77978;SDS011;67169;50.268;8.694;2023-04-15T11:07:49;2.45;;;1.80;;
77978;SDS011;67169;50.268;8.694;2023-04-15T11:13:20;1.90;;;1.58;;
77978;SDS011;67169;50.268;8.694;2023-04-15T11:15:49;2.83;;;1.90;;
77978;SDS011;67169;50.268;8.694;2023-04-15T11:18:16;2.78;;;1.77;;
77978;SDS011;67169;50.268;8.694;2023-04-15T11:20:46;3.17;;;1.85;;
77978;SDS011;67169;50.268;8.694;2023-04-15T11:23:14;2.47;;;1.70;;
77978;SDS011;67169;50.268;8.694;2023-04-15T11:25:43;8.68;;;1.85;;
77978;SDS011;67169;50.268;8.694;2023-04-15T11:28:10;3.40;;;1.88;;
77978;SDS011;67169;50.268;8.694;2023-04-15T11:30:38;5.28;;;1.80;;
77978;SDS011;67169;50.268;8.694;2023-04-15T11:33:06;3.85;;;1.77;;
77978;SDS011;67169;50.268;8.694;2023-04-15T11:35:34;2.83;;;1.85;;
77978;SDS011;67169;50.268;8.694;2023-04-15T11:38:03;2.22;;;1.67;;
77978;SDS011;67169;50.268;8.694;2023-04-15T11:40:30;2.22;;;1.70;;
77978;SDS011;67169;50.268;8.694;2023-04-15T11:43:03;2.25;;;1.73;;
77978;SDS011;67169;50.268;8.694;2023-04-15T11:45:30;2.75;;;1.63;;
77978;SDS011;67169;50.268;8.694;2023-04-15T11:48:04;2.78;;;2.05;;
77978;SDS011;67169;50.268;8.694;2023-04-15T11:50:33;2.15;;;1.73;;
77978;SDS011;67169;50.268;8.694;2023-04-15T11:53:01;2.45;;;1.80;;
77978;SDS011;67169;50.268;8.694;2023-04-15T11:55:30;1.90;;;1.63;;
77978;SDS011;67169;50.268;8.694;2023-04-15T11:58:08;3.28;;;2.10;;
77978;SDS011;67169;50.268;8.694;2023-04-15T12:00:36;4.35;;;1.85;;
77978;SDS011;67169;50.268;8.694;2023-04-15T12:03:10;3.60;;;2.10;;
77978;SDS011;67169;50.268;8.694;2023-04-15T12:08:20;5.03;;;2.25;;
77978;SDS011;67169;50.268;8.694;2023-04-15T12:10:47;4.18;;;1.98;;
77978;SDS011;67169;50.268;8.694;2023-04-15T12:13:14;3.63;;;2.08;;
77978;SDS011;67169;50.268;8.694;2023-04-15T12:15:40;3.42;;;1.77;;
77978;SDS011;67169;50.268;8.694;2023-04-15T12:18:15;4.40;;;1.90;;
77978;SDS011;67169;50.268;8.694;2023-04-15T12:20:42;2.65;;;2.17;;
77978;SDS011;67169;50.268;8.694;2023-04-15T12:23:10;3.28;;;1.92;;
77978;SDS011;67169;50.268;8.694;2023-04-15T12:25:38;5.00;;;2.47;;
77978;SDS011;67169;50.268;8.694;2023-04-15T12:28:09;2.65;;;1.73;;
77978;SDS011;67169;50.268;8.694;2023-04-15T12:30:40;5.35;;;1.88;;
77978;SDS011;67169;50.268;8.694;2023-04-15T12:33:14;2.55;;;1.92;;
77978;SDS011;67169;50.268;8.694;2023-04-15T12:35:40;2.58;;;1.80;;
77978;SDS011;67169;50.268;8.694;2023-04-15T12:38:07;3.10;;;2.13;;
77978;SDS011;67169;50.268;8.694;2023-04-15T12:40:34;2.33;;;1.45;;
77978;SDS011;67169;50.268;8.694;2023-04-15T12:43:02;2.60;;;1.50;;
77978;SDS011;67169;50.268;8.694;2023-04-15T12:47:55;1.45;;;1.35;;
77978;SDS011;67169;50.268;8.694;2023-04-15T12:50:22;2.10;;;1.13;;
77978;SDS011;67169;50.268;8.694;2023-04-15T12:52:48;1.55;;;1.00;;
77978;SDS011;67169;50.268;8.694;2023-04-15T12:55:15;2.08;;;0.90;;
77978;SDS011;67169;50.268;8.694;2023-04-15T12:57:42;1.70;;;0.80;;
77978;SDS011;67169;50.268;8.694;2023-04-15T13:00:10;1.83;;;1.20;;
77978;SDS011;67169;50.268;8.694;2023-04-15T13:02:37;1.98;;;1.30;;
77978;SDS011;67169;50.268;8.694;2023-04-15T13:05:04;1.20;;;0.98;;
77978;SDS011;67169;50.268;8.694;2023-04-15T13:07:31;0.70;;;0.70;;
77978;SDS011;67169;50.268;8.694;2023-04-15T13:09:58;1.15;;;0.95;;
77978;SDS011;67169;50.268;8.694;2023-04-15T13:12:25;2.45;;;0.80;;
77978;SDS011;67169;50.268;8.694;2023-04-15T13:14:52;1.55;;;0.82;;
77978;SDS011;67169;50.268;8.694;2023-04-15T13:17:20;1.67;;;1.00;;
77978;SDS011;67169;50.268;8.694;2023-04-15T13:24:39;2.00;;;0.55;;
77978;SDS011;67169;50.268;8.694;2023-04-15T13:27:06;0.50;;;0.50;;
77978;SDS011;67169;50.268;8.694;2023-04-15T13:29:32;0.63;;;0.63;;
77978;SDS011;67169;50.268;8.694;2023-04-15T13:31:59;0.93;;;0.52;;
77978;SDS011;67169;50.268;8.694;2023-04-15T13:34:27;1.30;;;0.50;;
77978;SDS011;67169;50.268;8.694;2023-04-15T13:39:20;0.60;;;0.60;;
77978;SDS011;67169;50.268;8.694;2023-04-15T13:41:47;0.50;;;0.50;;
77978;SDS011;67169;50.268;8.694;2023-04-15T13:44:13;0.82;;;0.70;;
77978;SDS011;67169;50.268;8.694;2023-04-15T13:46:40;0.60;;;0.50;;
77978;SDS011;67169;50.268;8.694;2023-04-15T13:49:07;0.95;;;0.50;;
77978;SDS011;67169;50.268;8.694;2023-04-15T13:51:35;1.70;;;0.70;;
77978;SDS011;67169;50.268;8.694;2023-04-15T13:58:54;1.38;;;1.00;;
77978;SDS011;67169;50.268;8.694;2023-04-15T14:01:23;1.80;;;1.65;;
77978;SDS011;67169;50.268;8.694;2023-04-15T14:03:49;1.70;;;1.38;;
77978;SDS011;67169;50.268;8.694;2023-04-15T14:06:16;1.88;;;1.05;;
77978;SDS011;67169;50.268;8.694;2023-04-15T14:08:44;1.48;;;1.33;;
77978;SDS011;67169;50.268;8.694;2023-04-15T14:13:37;1.48;;;1.08;;
77978;SDS011;67169;50.268;8.694;2023-04-15T14:16:04;1.45;;;1.33;;
77978;SDS011;67169;50.268;8.694;2023-04-15T14:18:31;1.23;;;1.13;;
77978;SDS011;67169;50.268;8.694;2023-04-15T14:20:58;1.25;;;1.08;;
77978;SDS011;67169;50.268;8.694;2023-04-15T14:23:25;1.33;;;1.00;;
77978;SDS011;67169;50.268;8.694;2023-04-15T14:25:53;1.02;;;0.93;;
77978;SDS011;67169;50.268;8.694;2023-04-15T14:30:46;1.15;;;0.63;;
77978;SDS011;67169;50.268;8.694;2023-04-15T14:33:12;1.15;;;0.80;;
77978;SDS011;67169;50.268;8.694;2023-04-15T14:35:39;0.60;;;0.60;;
77978;SDS011;67169;50.268;8.694;2023-04-15T14:38:06;1.05;;;0.80;;
77978;SDS011;67169;50.268;8.694;2023-04-15T14:40:34;0.85;;;0.80;;
77978;SDS011;67169;50.268;8.694;2023-04-15T14:43:02;1.13;;;0.68;;
77978;SDS011;67169;50.268;8.694;2023-04-15T14:47:55;2.08;;;0.85;;
77978;SDS011;67169;50.268;8.694;2023-04-15T14:50:22;0.70;;;0.70;;
77978;SDS011;67169;50.268;8.694;2023-04-15T14:52:49;1.13;;;0.73;;
77978;SDS011;67169;50.268;8.694;2023-04-15T14:55:15;0.85;;;0.73;;
77978;SDS011;67169;50.268;8.694;2023-04-15T14:57:42;1.08;;;0.88;;
77978;SDS011;67169;50.268;8.694;2023-04-15T15:00:10;0.80;;;0.60;;
77978;SDS011;67169;50.268;8.694;2023-04-15T15:02:37;0.70;;;0.52;;
77978;SDS011;67169;50.268;8.694;2023-04-15T15:05:04;0.85;;;0.65;;
77978;SDS011;67169;50.268;8.694;2023-04-15T15:07:31;0.80;;;0.70;;
77978;SDS011;67169;50.268;8.694;2023-04-15T15:09:58;1.05;;;0.70;;
77978;SDS011;67169;50.268;8.694;2023-04-15T15:12:24;0.70;;;0.60;;
77978;SDS011;67169;50.268;8.694;2023-04-15T15:14:51;0.95;;;0.60;;
77978;SDS011;67169;50.268;8.694;2023-04-15T15:17:19;0.60;;;0.40;;
77978;SDS011;67169;50.268;8.694;2023-04-15T15:24:38;1.60;;;0.63;;
77978;SDS011;67169;50.268;8.694;2023-04-15T15:27:05;0.70;;;0.60;;
77978;SDS011;67169;50.268;8.694;2023-04-15T15:29:32;0.40;;;0.40;;
77978;SDS011;67169;50.268;8.694;2023-04-15T15:31:59;1.00;;;0.70;;
77978;SDS011;67169;50.268;8.694;2023-04-15T15:34:27;0.52;;;0.47;;
77978;SDS011;67169;50.268;8.694;2023-04-15T15:39:21;0.52;;;0.50;;
77978;SDS011;67169;50.268;8.694;2023-04-15T15:41:48;0.85;;;0.80;;